sensor_id;sensor_type;location;lat;lon;timestamp;P1;durP1;ratioP1;P2;durP2;ratioP2
7162;SDS011;3623;47.098;15.446;2022-11-06T00:00:15;1.38;;;1.30;;
7162;SDS011;3623;47.098;15.446;2022-11-06T00:02:43;4.63;;;1.80;;
7162;SDS011;3623;47.098;15.446;2022-11-06T00:05:11;1.30;;;1.30;;
7162;SDS011;3623;47.098;15.446;2022-11-06T00:07:52;1.80;;;1.70;;
7162;SDS011;3623;47.098;15.446;2022-11-06T00:10:20;5.32;;;1.70;;
7162;SDS011;3623;47.098;15.446;2022-11-06T00:12:48;1.48;;;1.30;;
7162;SDS011;3623;47.098;15.446;2022-11-06T00:15:16;1.40;;;1.40;;
7162;SDS011;3623;47.098;15.446;2022-11-06T00:17:44;2.05;;;1.60;;
7162;SDS011;3623;47.098;15.446;2022-11-06T00:20:14;1.42;;;1.33;;
7162;SDS011;3623;47.098;15.446;2022-11-06T00:22:41;1.67;;;1.65;;
7162;SDS011;3623;47.098;15.446;2022-11-06T00:25:08;1.92;;;1.83;;
7162;SDS011;3623;47.098;15.446;2022-11-06T00:27:36;1.63;;;1.52;;
7162;SDS011;3623;47.098;15.446;2022-11-06T00:30:06;1.60;;;1.52;;
7162;SDS011;3623;47.098;15.446;2022-11-06T00:32:35;1.80;;;1.70;;
7162;SDS011;3623;47.098;15.446;2022-11-06T00:35:02;2.28;;;1.55;;
7162;SDS011;3623;47.098;15.446;2022-11-06T00:37:30;1.48;;;1.38;;
7162;SDS011;3623;47.098;15.446;2022-11-06T00:39:58;1.70;;;1.60;;
7162;SDS011;3623;47.098;15.446;2022-11-06T00:42:25;1.58;;;1.58;;
7162;SDS011;3623;47.098;15.446;2022-11-06T00:44:52;1.70;;;1.60;;
7162;SDS011;3623;47.098;15.446;2022-11-06T00:47:21;1.65;;;1.55;;
7162;SDS011;3623;47.098;15.446;2022-11-06T00:49:48;1.50;;;1.50;;
7162;SDS011;3623;47.098;15.446;2022-11-06T00:52:15;1.92;;;1.83;;
7162;SDS011;3623;47.098;15.446;2022-11-06T00:54:42;1.38;;;1.30;;
7162;SDS011;3623;47.098;15.446;2022-11-06T00:57:09;1.75;;;1.65;;
7162;SDS011;3623;47.098;15.446;2022-11-06T00:59:36;1.55;;;1.55;;
7162;SDS011;3623;47.098;15.446;2022-11-06T01:02:03;1.60;;;1.50;;
7162;SDS011;3623;47.098;15.446;2022-11-06T01:04:32;1.10;;;1.10;;
7162;SDS011;3623;47.098;15.446;2022-11-06T01:06:59;1.60;;;1.50;;
7162;SDS011;3623;47.098;15.446;2022-11-06T01:09:26;1.90;;;1.80;;
7162;SDS011;3623;47.098;15.446;2022-11-06T01:11:54;1.30;;;1.30;;
7162;SDS011;3623;47.098;15.446;2022-11-06T01:14:23;1.85;;;1.75;;
7162;SDS011;3623;47.098;15.446;2022-11-06T01:16:50;1.77;;;1.67;;
7162;SDS011;3623;47.098;15.446;2022-11-06T01:19:19;1.70;;;1.60;;
7162;SDS011;3623;47.098;15.446;2022-11-06T01:21:48;1.80;;;1.70;;
7162;SDS011;3623;47.098;15.446;2022-11-06T01:24:18;1.75;;;1.65;;
7162;SDS011;3623;47.098;15.446;2022-11-06T01:26:47;1.98;;;1.85;;
7162;SDS011;3623;47.098;15.446;2022-11-06T01:29:16;1.80;;;1.70;;
7162;SDS011;3623;47.098;15.446;2022-11-06T01:31:44;2.58;;;2.00;;
7162;SDS011;3623;47.098;15.446;2022-11-06T01:34:14;1.73;;;1.73;;
7162;SDS011;3623;47.098;15.446;2022-11-06T01:36:41;2.88;;;1.77;;
7162;SDS011;3623;47.098;15.446;2022-11-06T01:39:12;1.65;;;1.55;;
7162;SDS011;3623;47.098;15.446;2022-11-06T01:41:41;1.60;;;1.50;;
7162;SDS011;3623;47.098;15.446;2022-11-06T01:47:17;1.60;;;1.50;;
7162;SDS011;3623;47.098;15.446;2022-11-06T01:49:47;1.98;;;1.80;;
7162;SDS011;3623;47.098;15.446;2022-11-06T01:52:16;2.75;;;1.55;;
7162;SDS011;3623;47.098;15.446;2022-11-06T01:54:47;1.70;;;1.70;;
7162;SDS011;3623;47.098;15.446;2022-11-06T01:57:18;4.53;;;1.60;;
7162;SDS011;3623;47.098;15.446;2022-11-06T01:59:46;1.60;;;1.60;;
7162;SDS011;3623;47.098;15.446;2022-11-06T02:02:14;2.13;;;2.03;;
7162;SDS011;3623;47.098;15.446;2022-11-06T02:04:43;1.90;;;1.80;;
7162;SDS011;3623;47.098;15.446;2022-11-06T02:07:12;1.67;;;1.58;;
7162;SDS011;3623;47.098;15.446;2022-11-06T02:09:40;1.80;;;1.70;;
7162;SDS011;3623;47.098;15.446;2022-11-06T02:12:12;1.73;;;1.63;;
7162;SDS011;3623;47.098;15.446;2022-11-06T02:14:47;1.80;;;1.70;;
7162;SDS011;3623;47.098;15.446;2022-11-06T02:17:31;1.48;;;1.40;;
7162;SDS011;3623;47.098;15.446;2022-11-06T02:20:07;1.73;;;1.63;;
7162;SDS011;3623;47.098;15.446;2022-11-06T02:22:48;3.20;;;1.60;;
7162;SDS011;3623;47.098;15.446;2022-11-06T02:25:51;1.17;;;1.17;;
7162;SDS011;3623;47.098;15.446;2022-11-06T02:28:29;1.48;;;1.38;;
7162;SDS011;3623;47.098;15.446;2022-11-06T02:31:01;1.67;;;1.67;;
7162;SDS011;3623;47.098;15.446;2022-11-06T02:33:32;1.33;;;1.23;;
7162;SDS011;3623;47.098;15.446;2022-11-06T02:36:04;1.20;;;1.20;;
7162;SDS011;3623;47.098;15.446;2022-11-06T02:38:36;1.40;;;1.40;;
7162;SDS011;3623;47.098;15.446;2022-11-06T02:41:07;1.60;;;1.50;;
7162;SDS011;3623;47.098;15.446;2022-11-06T02:43:47;1.48;;;1.48;;
7162;SDS011;3623;47.098;15.446;2022-11-06T02:46:17;3.65;;;1.50;;
7162;SDS011;3623;47.098;15.446;2022-11-06T02:48:50;1.88;;;1.77;;
7162;SDS011;3623;47.098;15.446;2022-11-06T02:51:23;1.70;;;1.60;;
7162;SDS011;3623;47.098;15.446;2022-11-06T02:53:53;1.60;;;1.50;;
7162;SDS011;3623;47.098;15.446;2022-11-06T02:56:27;1.90;;;1.80;;
7162;SDS011;3623;47.098;15.446;2022-11-06T02:59:00;1.45;;;1.35;;
7162;SDS011;3623;47.098;15.446;2022-11-06T03:01:32;1.40;;;1.40;;
7162;SDS011;3623;47.098;15.446;2022-11-06T03:04:04;1.50;;;1.50;;
7162;SDS011;3623;47.098;15.446;2022-11-06T03:06:37;1.70;;;1.60;;
7162;SDS011;3623;47.098;15.446;2022-11-06T03:09:09;1.27;;;1.27;;
7162;SDS011;3623;47.098;15.446;2022-11-06T03:11:40;1.20;;;1.20;;
7162;SDS011;3623;47.098;15.446;2022-11-06T03:14:10;1.70;;;1.60;;
7162;SDS011;3623;47.098;15.446;2022-11-06T03:16:42;1.60;;;1.50;;
7162;SDS011;3623;47.098;15.446;2022-11-06T03:19:18;1.42;;;1.33;;
7162;SDS011;3623;47.098;15.446;2022-11-06T03:21:52;1.77;;;1.65;;
7162;SDS011;3623;47.098;15.446;2022-11-06T03:24:24;1.60;;;1.52;;
7162;SDS011;3623;47.098;15.446;2022-11-06T03:26:54;1.90;;;1.80;;
7162;SDS011;3623;47.098;15.446;2022-11-06T03:29:26;1.30;;;1.30;;
7162;SDS011;3623;47.098;15.446;2022-11-06T03:32:00;1.48;;;1.42;;
7162;SDS011;3623;47.098;15.446;2022-11-06T03:34:35;1.83;;;1.73;;
7162;SDS011;3623;47.098;15.446;2022-11-06T03:37:09;3.33;;;1.75;;
7162;SDS011;3623;47.098;15.446;2022-11-06T03:39:42;1.83;;;1.73;;
7162;SDS011;3623;47.098;15.446;2022-11-06T03:42:13;1.50;;;1.42;;
7162;SDS011;3623;47.098;15.446;2022-11-06T03:44:46;1.65;;;1.55;;
7162;SDS011;3623;47.098;15.446;2022-11-06T03:47:17;1.65;;;1.65;;
7162;SDS011;3623;47.098;15.446;2022-11-06T03:49:50;1.63;;;1.52;;
7162;SDS011;3623;47.098;15.446;2022-11-06T03:52:21;1.90;;;1.80;;
7162;SDS011;3623;47.098;15.446;2022-11-06T03:54:54;1.25;;;1.25;;
7162;SDS011;3623;47.098;15.446;2022-11-06T03:57:26;2.25;;;1.23;;
7162;SDS011;3623;47.098;15.446;2022-11-06T04:00:02;1.40;;;1.40;;
7162;SDS011;3623;47.098;15.446;2022-11-06T04:02:32;1.88;;;1.77;;
7162;SDS011;3623;47.098;15.446;2022-11-06T04:05:03;1.45;;;1.38;;
7162;SDS011;3623;47.098;15.446;2022-11-06T04:07:35;1.40;;;1.40;;
7162;SDS011;3623;47.098;15.446;2022-11-06T04:10:08;1.40;;;1.40;;
7162;SDS011;3623;47.098;15.446;2022-11-06T04:12:53;2.35;;;1.90;;
7162;SDS011;3623;47.098;15.446;2022-11-06T04:15:44;1.90;;;1.80;;
7162;SDS011;3623;47.098;15.446;2022-11-06T04:18:16;1.20;;;1.20;;
7162;SDS011;3623;47.098;15.446;2022-11-06T04:20:47;1.77;;;1.67;;
7162;SDS011;3623;47.098;15.446;2022-11-06T04:23:37;1.52;;;1.42;;
7162;SDS011;3623;47.098;15.446;2022-11-06T04:26:34;1.45;;;1.35;;
7162;SDS011;3623;47.098;15.446;2022-11-06T04:29:11;1.50;;;1.40;;
7162;SDS011;3623;47.098;15.446;2022-11-06T04:31:53;1.70;;;1.60;;
7162;SDS011;3623;47.098;15.446;2022-11-06T04:34:27;1.67;;;1.65;;
7162;SDS011;3623;47.098;15.446;2022-11-06T04:37:05;1.77;;;1.67;;
7162;SDS011;3623;47.098;15.446;2022-11-06T04:39:36;1.40;;;1.40;;
7162;SDS011;3623;47.098;15.446;2022-11-06T04:42:10;1.45;;;1.45;;
7162;SDS011;3623;47.098;15.446;2022-11-06T04:44:43;1.67;;;1.58;;
7162;SDS011;3623;47.098;15.446;2022-11-06T04:47:16;1.52;;;1.42;;
7162;SDS011;3623;47.098;15.446;2022-11-06T04:49:45;1.70;;;1.60;;
7162;SDS011;3623;47.098;15.446;2022-11-06T04:52:17;2.17;;;2.08;;
7162;SDS011;3623;47.098;15.446;2022-11-06T04:54:46;1.90;;;1.60;;
7162;SDS011;3623;47.098;15.446;2022-11-06T04:57:14;1.83;;;1.73;;
7162;SDS011;3623;47.098;15.446;2022-11-06T04:59:41;1.92;;;1.80;;
7162;SDS011;3623;47.098;15.446;2022-11-06T05:02:09;1.90;;;1.80;;
7162;SDS011;3623;47.098;15.446;2022-11-06T05:04:38;1.60;;;1.50;;
7162;SDS011;3623;47.098;15.446;2022-11-06T05:07:05;1.83;;;1.75;;
7162;SDS011;3623;47.098;15.446;2022-11-06T05:09:32;1.55;;;1.45;;
7162;SDS011;3623;47.098;15.446;2022-11-06T05:11:59;1.95;;;1.65;;
7162;SDS011;3623;47.098;15.446;2022-11-06T05:14:26;5.40;;;1.52;;
7162;SDS011;3623;47.098;15.446;2022-11-06T05:16:53;1.70;;;1.60;;
7162;SDS011;3623;47.098;15.446;2022-11-06T05:19:20;2.25;;;2.15;;
7162;SDS011;3623;47.098;15.446;2022-11-06T05:21:48;1.92;;;1.83;;
7162;SDS011;3623;47.098;15.446;2022-11-06T05:24:33;2.30;;;2.20;;
7162;SDS011;3623;47.098;15.446;2022-11-06T05:27:00;2.17;;;2.05;;
7162;SDS011;3623;47.098;15.446;2022-11-06T05:29:27;2.00;;;1.90;;
7162;SDS011;3623;47.098;15.446;2022-11-06T05:31:54;2.35;;;2.25;;
7162;SDS011;3623;47.098;15.446;2022-11-06T05:34:21;2.50;;;2.40;;
7162;SDS011;3623;47.098;15.446;2022-11-06T05:36:49;4.15;;;2.15;;
7162;SDS011;3623;47.098;15.446;2022-11-06T05:39:16;1.88;;;1.77;;
7162;SDS011;3623;47.098;15.446;2022-11-06T05:41:43;2.38;;;2.17;;
7162;SDS011;3623;47.098;15.446;2022-11-06T05:44:10;2.03;;;1.92;;
7162;SDS011;3623;47.098;15.446;2022-11-06T05:46:37;1.50;;;1.50;;
7162;SDS011;3623;47.098;15.446;2022-11-06T05:49:04;1.67;;;1.67;;
7162;SDS011;3623;47.098;15.446;2022-11-06T05:51:32;2.30;;;2.20;;
7162;SDS011;3623;47.098;15.446;2022-11-06T05:54:00;2.50;;;2.38;;
7162;SDS011;3623;47.098;15.446;2022-11-06T05:56:29;2.60;;;2.40;;
7162;SDS011;3623;47.098;15.446;2022-11-06T05:58:56;1.90;;;1.80;;
7162;SDS011;3623;47.098;15.446;2022-11-06T06:01:23;2.20;;;2.08;;
7162;SDS011;3623;47.098;15.446;2022-11-06T06:03:50;1.92;;;1.83;;
7162;SDS011;3623;47.098;15.446;2022-11-06T06:06:17;1.80;;;1.70;;
7162;SDS011;3623;47.098;15.446;2022-11-06T06:08:45;2.80;;;2.13;;
7162;SDS011;3623;47.098;15.446;2022-11-06T06:11:14;2.00;;;1.90;;
7162;SDS011;3623;47.098;15.446;2022-11-06T06:13:41;3.10;;;2.47;;
7162;SDS011;3623;47.098;15.446;2022-11-06T06:16:08;2.88;;;2.67;;
7162;SDS011;3623;47.098;15.446;2022-11-06T06:18:35;2.80;;;2.55;;
7162;SDS011;3623;47.098;15.446;2022-11-06T06:21:02;2.22;;;2.03;;
7162;SDS011;3623;47.098;15.446;2022-11-06T06:23:29;2.40;;;2.17;;
7162;SDS011;3623;47.098;15.446;2022-11-06T06:25:56;2.75;;;2.15;;
7162;SDS011;3623;47.098;15.446;2022-11-06T06:28:25;2.53;;;2.38;;
7162;SDS011;3623;47.098;15.446;2022-11-06T06:30:52;2.28;;;2.17;;
7162;SDS011;3623;47.098;15.446;2022-11-06T06:33:19;2.20;;;2.10;;
7162;SDS011;3623;47.098;15.446;2022-11-06T06:35:46;2.50;;;2.22;;
7162;SDS011;3623;47.098;15.446;2022-11-06T06:38:13;2.90;;;2.70;;
7162;SDS011;3623;47.098;15.446;2022-11-06T06:40:40;5.75;;;3.05;;
7162;SDS011;3623;47.098;15.446;2022-11-06T06:43:07;3.20;;;2.75;;
7162;SDS011;3623;47.098;15.446;2022-11-06T06:45:36;3.00;;;2.78;;
7162;SDS011;3623;47.098;15.446;2022-11-06T06:48:03;2.67;;;2.55;;
7162;SDS011;3623;47.098;15.446;2022-11-06T06:50:31;2.60;;;2.40;;
7162;SDS011;3623;47.098;15.446;2022-11-06T06:52:58;2.70;;;2.60;;
7162;SDS011;3623;47.098;15.446;2022-11-06T06:55:25;3.40;;;3.13;;
7162;SDS011;3623;47.098;15.446;2022-11-06T06:57:56;2.35;;;2.25;;
7162;SDS011;3623;47.098;15.446;2022-11-06T07:00:24;2.53;;;2.33;;
7162;SDS011;3623;47.098;15.446;2022-11-06T07:02:53;2.78;;;2.60;;
7162;SDS011;3623;47.098;15.446;2022-11-06T07:05:20;2.75;;;2.55;;
7162;SDS011;3623;47.098;15.446;2022-11-06T07:07:47;2.55;;;2.35;;
7162;SDS011;3623;47.098;15.446;2022-11-06T07:10:14;2.10;;;2.00;;
7162;SDS011;3623;47.098;15.446;2022-11-06T07:12:42;1.60;;;1.50;;
7162;SDS011;3623;47.098;15.446;2022-11-06T07:15:09;2.38;;;2.20;;
7162;SDS011;3623;47.098;15.446;2022-11-06T07:17:36;2.10;;;2.00;;
7162;SDS011;3623;47.098;15.446;2022-11-06T07:20:05;2.15;;;2.05;;
7162;SDS011;3623;47.098;15.446;2022-11-06T07:22:34;2.35;;;2.17;;
7162;SDS011;3623;47.098;15.446;2022-11-06T07:25:01;2.38;;;2.28;;
7162;SDS011;3623;47.098;15.446;2022-11-06T07:27:28;2.70;;;2.50;;
7162;SDS011;3623;47.098;15.446;2022-11-06T07:29:56;2.80;;;2.60;;
7162;SDS011;3623;47.098;15.446;2022-11-06T07:32:24;2.90;;;2.70;;
7162;SDS011;3623;47.098;15.446;2022-11-06T07:34:51;3.17;;;2.90;;
7162;SDS011;3623;47.098;15.446;2022-11-06T07:37:20;2.92;;;2.72;;
7162;SDS011;3623;47.098;15.446;2022-11-06T07:39:47;2.92;;;2.58;;
7162;SDS011;3623;47.098;15.446;2022-11-06T07:42:14;3.25;;;2.95;;
7162;SDS011;3623;47.098;15.446;2022-11-06T07:44:41;2.95;;;2.75;;
7162;SDS011;3623;47.098;15.446;2022-11-06T07:47:08;3.30;;;3.10;;
7162;SDS011;3623;47.098;15.446;2022-11-06T07:49:35;3.03;;;2.75;;
7162;SDS011;3623;47.098;15.446;2022-11-06T07:52:03;3.63;;;3.35;;
7162;SDS011;3623;47.098;15.446;2022-11-06T07:54:32;3.92;;;3.63;;
7162;SDS011;3623;47.098;15.446;2022-11-06T07:56:59;4.05;;;3.75;;
7162;SDS011;3623;47.098;15.446;2022-11-06T07:59:26;4.28;;;3.92;;
7162;SDS011;3623;47.098;15.446;2022-11-06T08:01:53;5.07;;;4.18;;
7162;SDS011;3623;47.098;15.446;2022-11-06T08:04:20;4.25;;;3.80;;
7162;SDS011;3623;47.098;15.446;2022-11-06T08:06:47;4.10;;;3.40;;
7162;SDS011;3623;47.098;15.446;2022-11-06T08:09:14;2.65;;;2.55;;
7162;SDS011;3623;47.098;15.446;2022-11-06T08:11:43;3.03;;;2.83;;
7162;SDS011;3623;47.098;15.446;2022-11-06T08:14:10;3.00;;;2.80;;
7162;SDS011;3623;47.098;15.446;2022-11-06T08:16:37;2.72;;;2.53;;
7162;SDS011;3623;47.098;15.446;2022-11-06T08:19:04;2.83;;;2.58;;
7162;SDS011;3623;47.098;15.446;2022-11-06T08:21:31;7.40;;;3.28;;
7162;SDS011;3623;47.098;15.446;2022-11-06T08:23:58;3.63;;;3.33;;
7162;SDS011;3623;47.098;15.446;2022-11-06T08:26:25;3.50;;;3.20;;
7162;SDS011;3623;47.098;15.446;2022-11-06T08:28:54;3.55;;;3.35;;
7162;SDS011;3623;47.098;15.446;2022-11-06T08:31:21;5.10;;;4.20;;
7162;SDS011;3623;47.098;15.446;2022-11-06T08:33:49;7.35;;;3.20;;
7162;SDS011;3623;47.098;15.446;2022-11-06T08:36:17;3.22;;;3.03;;
7162;SDS011;3623;47.098;15.446;2022-11-06T08:38:45;4.35;;;3.35;;
7162;SDS011;3623;47.098;15.446;2022-11-06T08:41:13;3.30;;;3.00;;
7162;SDS011;3623;47.098;15.446;2022-11-06T08:43:41;3.03;;;2.80;;
7162;SDS011;3623;47.098;15.446;2022-11-06T08:46:09;3.10;;;2.90;;
7162;SDS011;3623;47.098;15.446;2022-11-06T08:48:36;5.30;;;3.40;;
7162;SDS011;3623;47.098;15.446;2022-11-06T08:51:03;4.18;;;3.78;;
7162;SDS011;3623;47.098;15.446;2022-11-06T08:53:31;3.95;;;3.65;;
7162;SDS011;3623;47.098;15.446;2022-11-06T08:55:59;3.10;;;2.90;;
7162;SDS011;3623;47.098;15.446;2022-11-06T08:58:28;3.28;;;3.08;;
7162;SDS011;3623;47.098;15.446;2022-11-06T09:00:55;15.50;;;3.40;;
7162;SDS011;3623;47.098;15.446;2022-11-06T09:03:23;4.03;;;3.45;;
7162;SDS011;3623;47.098;15.446;2022-11-06T09:05:51;2.90;;;2.70;;
7162;SDS011;3623;47.098;15.446;2022-11-06T09:08:18;3.20;;;3.00;;
7162;SDS011;3623;47.098;15.446;2022-11-06T09:10:45;3.63;;;3.33;;
7162;SDS011;3623;47.098;15.446;2022-11-06T09:13:12;3.93;;;3.60;;
7162;SDS011;3623;47.098;15.446;2022-11-06T09:15:39;3.47;;;3.17;;
7162;SDS011;3623;47.098;15.446;2022-11-06T09:18:06;2.37;;;2.27;;
7162;SDS011;3623;47.098;15.446;2022-11-06T09:20:35;3.00;;;2.20;;
7162;SDS011;3623;47.098;15.446;2022-11-06T09:23:03;2.50;;;2.20;;
7162;SDS011;3623;47.098;15.446;2022-11-06T09:25:31;3.03;;;2.83;;
7162;SDS011;3623;47.098;15.446;2022-11-06T09:27:59;3.40;;;2.57;;
7162;SDS011;3623;47.098;15.446;2022-11-06T09:30:27;2.47;;;2.37;;
7162;SDS011;3623;47.098;15.446;2022-11-06T09:32:56;2.97;;;2.70;;
7162;SDS011;3623;47.098;15.446;2022-11-06T09:35:25;2.40;;;2.20;;
7162;SDS011;3623;47.098;15.446;2022-11-06T09:37:58;2.00;;;1.90;;
7162;SDS011;3623;47.098;15.446;2022-11-06T09:40:27;2.30;;;2.20;;
7162;SDS011;3623;47.098;15.446;2022-11-06T09:43:01;2.20;;;2.10;;
7162;SDS011;3623;47.098;15.446;2022-11-06T09:45:37;1.90;;;1.80;;
7162;SDS011;3623;47.098;15.446;2022-11-06T09:48:10;1.97;;;1.83;;
7162;SDS011;3623;47.098;15.446;2022-11-06T09:50:43;1.80;;;1.70;;
7162;SDS011;3623;47.098;15.446;2022-11-06T09:53:18;1.97;;;1.87;;
7162;SDS011;3623;47.098;15.446;2022-11-06T09:55:49;2.50;;;2.30;;
7162;SDS011;3623;47.098;15.446;2022-11-06T09:58:19;1.70;;;1.60;;
7162;SDS011;3623;47.098;15.446;2022-11-06T10:00:50;2.27;;;1.93;;
7162;SDS011;3623;47.098;15.446;2022-11-06T10:03:21;2.10;;;2.00;;
7162;SDS011;3623;47.098;15.446;2022-11-06T10:05:51;2.17;;;1.87;;
7162;SDS011;3623;47.098;15.446;2022-11-06T10:08:21;1.57;;;1.47;;
7162;SDS011;3623;47.098;15.446;2022-11-06T10:10:56;1.70;;;1.60;;
7162;SDS011;3623;47.098;15.446;2022-11-06T10:13:40;2.30;;;1.57;;
7162;SDS011;3623;47.098;15.446;2022-11-06T10:16:16;3.20;;;1.93;;
7162;SDS011;3623;47.098;15.446;2022-11-06T10:18:53;2.40;;;2.20;;
7162;SDS011;3623;47.098;15.446;2022-11-06T10:21:27;2.23;;;2.13;;
7162;SDS011;3623;47.098;15.446;2022-11-06T10:24:02;1.93;;;1.83;;
7162;SDS011;3623;47.098;15.446;2022-11-06T10:26:38;2.00;;;1.80;;
7162;SDS011;3623;47.098;15.446;2022-11-06T10:29:10;2.23;;;1.90;;
7162;SDS011;3623;47.098;15.446;2022-11-06T10:31:51;3.23;;;3.03;;
7162;SDS011;3623;47.098;15.446;2022-11-06T10:34:32;2.30;;;2.10;;
7162;SDS011;3623;47.098;15.446;2022-11-06T10:37:04;3.17;;;2.20;;
7162;SDS011;3623;47.098;15.446;2022-11-06T10:39:35;1.90;;;1.80;;
7162;SDS011;3623;47.098;15.446;2022-11-06T10:42:04;2.23;;;2.03;;
7162;SDS011;3623;47.098;15.446;2022-11-06T10:44:35;2.50;;;2.40;;
7162;SDS011;3623;47.098;15.446;2022-11-06T10:47:07;2.43;;;2.00;;
7162;SDS011;3623;47.098;15.446;2022-11-06T10:49:39;2.60;;;2.40;;
7162;SDS011;3623;47.098;15.446;2022-11-06T10:52:18;2.73;;;2.53;;
7162;SDS011;3623;47.098;15.446;2022-11-06T10:55:08;3.47;;;3.17;;
7162;SDS011;3623;47.098;15.446;2022-11-06T10:58:12;13.97;;;5.33;;
7162;SDS011;3623;47.098;15.446;2022-11-06T11:00:41;2.57;;;2.37;;
7162;SDS011;3623;47.098;15.446;2022-11-06T11:03:15;2.43;;;2.23;;
7162;SDS011;3623;47.098;15.446;2022-11-06T11:05:47;2.13;;;1.87;;
7162;SDS011;3623;47.098;15.446;2022-11-06T11:08:34;2.30;;;2.10;;
7162;SDS011;3623;47.098;15.446;2022-11-06T11:11:14;2.37;;;2.00;;
7162;SDS011;3623;47.098;15.446;2022-11-06T11:13:45;2.17;;;2.07;;
7162;SDS011;3623;47.098;15.446;2022-11-06T11:16:14;2.50;;;2.13;;
7162;SDS011;3623;47.098;15.446;2022-11-06T11:18:43;2.47;;;2.27;;
7162;SDS011;3623;47.098;15.446;2022-11-06T11:21:13;1.57;;;1.47;;
7162;SDS011;3623;47.098;15.446;2022-11-06T11:23:51;2.47;;;2.27;;
7162;SDS011;3623;47.098;15.446;2022-11-06T11:26:33;2.20;;;2.00;;
7162;SDS011;3623;47.098;15.446;2022-11-06T11:29:10;2.80;;;2.03;;
7162;SDS011;3623;47.098;15.446;2022-11-06T11:31:40;1.80;;;1.67;;
7162;SDS011;3623;47.098;15.446;2022-11-06T11:34:14;1.90;;;1.50;;
7162;SDS011;3623;47.098;15.446;2022-11-06T11:36:46;1.30;;;1.20;;
7162;SDS011;3623;47.098;15.446;2022-11-06T11:39:18;1.97;;;1.80;;
7162;SDS011;3623;47.098;15.446;2022-11-06T11:41:50;1.60;;;1.50;;
7162;SDS011;3623;47.098;15.446;2022-11-06T11:44:18;4.20;;;2.20;;
7162;SDS011;3623;47.098;15.446;2022-11-06T11:46:47;2.50;;;2.17;;
7162;SDS011;3623;47.098;15.446;2022-11-06T11:49:25;2.03;;;1.83;;
7162;SDS011;3623;47.098;15.446;2022-11-06T11:51:54;2.73;;;2.53;;
7162;SDS011;3623;47.098;15.446;2022-11-06T11:54:23;3.53;;;1.63;;
7162;SDS011;3623;47.098;15.446;2022-11-06T11:56:55;1.93;;;1.80;;
7162;SDS011;3623;47.098;15.446;2022-11-06T11:59:24;1.40;;;1.30;;
7162;SDS011;3623;47.098;15.446;2022-11-06T12:01:54;1.60;;;1.20;;
7162;SDS011;3623;47.098;15.446;2022-11-06T12:04:26;1.73;;;1.30;;
7162;SDS011;3623;47.098;15.446;2022-11-06T12:06:57;1.70;;;1.60;;
7162;SDS011;3623;47.098;15.446;2022-11-06T12:09:26;2.50;;;2.30;;
7162;SDS011;3623;47.098;15.446;2022-11-06T12:11:57;1.60;;;1.50;;
7162;SDS011;3623;47.098;15.446;2022-11-06T12:14:27;2.37;;;1.57;;
7162;SDS011;3623;47.098;15.446;2022-11-06T12:16:58;2.10;;;2.00;;
7162;SDS011;3623;47.098;15.446;2022-11-06T12:19:30;2.43;;;1.87;;
7162;SDS011;3623;47.098;15.446;2022-11-06T12:22:02;1.90;;;1.80;;
7162;SDS011;3623;47.098;15.446;2022-11-06T12:24:33;3.97;;;2.30;;
7162;SDS011;3623;47.098;15.446;2022-11-06T12:27:09;2.57;;;2.37;;
7162;SDS011;3623;47.098;15.446;2022-11-06T12:29:41;1.73;;;1.63;;
7162;SDS011;3623;47.098;15.446;2022-11-06T12:32:14;1.63;;;1.53;;
7162;SDS011;3623;47.098;15.446;2022-11-06T12:34:53;1.83;;;1.73;;
7162;SDS011;3623;47.098;15.446;2022-11-06T12:37:30;1.73;;;1.63;;
7162;SDS011;3623;47.098;15.446;2022-11-06T12:40:11;1.40;;;1.30;;
7162;SDS011;3623;47.098;15.446;2022-11-06T12:42:51;1.50;;;1.40;;
7162;SDS011;3623;47.098;15.446;2022-11-06T12:45:28;1.47;;;1.37;;
7162;SDS011;3623;47.098;15.446;2022-11-06T12:48:12;1.10;;;1.10;;
7162;SDS011;3623;47.098;15.446;2022-11-06T12:50:50;1.53;;;1.43;;
7162;SDS011;3623;47.098;15.446;2022-11-06T12:53:30;1.53;;;1.43;;
7162;SDS011;3623;47.098;15.446;2022-11-06T12:56:07;2.30;;;2.20;;
7162;SDS011;3623;47.098;15.446;2022-11-06T12:58:45;2.37;;;2.17;;
7162;SDS011;3623;47.098;15.446;2022-11-06T13:01:25;3.03;;;2.03;;
7162;SDS011;3623;47.098;15.446;2022-11-06T13:04:13;3.97;;;1.70;;
7162;SDS011;3623;47.098;15.446;2022-11-06T13:07:04;2.70;;;2.50;;
7162;SDS011;3623;47.098;15.446;2022-11-06T13:09:57;2.40;;;2.00;;
7162;SDS011;3623;47.098;15.446;2022-11-06T13:12:36;2.17;;;2.00;;
7162;SDS011;3623;47.098;15.446;2022-11-06T13:15:14;1.70;;;1.60;;
7162;SDS011;3623;47.098;15.446;2022-11-06T13:17:52;1.70;;;1.60;;
7162;SDS011;3623;47.098;15.446;2022-11-06T13:20:25;2.00;;;1.90;;
7162;SDS011;3623;47.098;15.446;2022-11-06T13:22:58;3.03;;;2.50;;
7162;SDS011;3623;47.098;15.446;2022-11-06T13:25:33;1.77;;;1.60;;
7162;SDS011;3623;47.098;15.446;2022-11-06T13:28:05;2.10;;;2.00;;
7162;SDS011;3623;47.098;15.446;2022-11-06T13:30:48;1.98;;;1.88;;
7162;SDS011;3623;47.098;15.446;2022-11-06T13:33:19;2.87;;;1.60;;
7162;SDS011;3623;47.098;15.446;2022-11-06T13:35:50;1.65;;;1.55;;
7162;SDS011;3623;47.098;15.446;2022-11-06T13:38:19;1.60;;;1.50;;
7162;SDS011;3623;47.098;15.446;2022-11-06T13:40:51;1.70;;;1.60;;
7162;SDS011;3623;47.098;15.446;2022-11-06T13:43:21;2.08;;;1.88;;
7162;SDS011;3623;47.098;15.446;2022-11-06T13:45:55;1.88;;;1.77;;
7162;SDS011;3623;47.098;15.446;2022-11-06T13:48:30;1.58;;;1.50;;
7162;SDS011;3623;47.098;15.446;2022-11-06T13:51:04;2.78;;;1.80;;
7162;SDS011;3623;47.098;15.446;2022-11-06T13:53:39;1.40;;;1.40;;
7162;SDS011;3623;47.098;15.446;2022-11-06T13:56:13;2.03;;;1.90;;
7162;SDS011;3623;47.098;15.446;2022-11-06T13:59:02;3.08;;;1.58;;
7162;SDS011;3623;47.098;15.446;2022-11-06T14:01:47;2.13;;;1.92;;
7162;SDS011;3623;47.098;15.446;2022-11-06T14:04:37;2.80;;;1.40;;
7162;SDS011;3623;47.098;15.446;2022-11-06T14:07:15;1.45;;;1.35;;
7162;SDS011;3623;47.098;15.446;2022-11-06T14:09:44;1.50;;;1.40;;
7162;SDS011;3623;47.098;15.446;2022-11-06T14:12:14;1.40;;;1.30;;
7162;SDS011;3623;47.098;15.446;2022-11-06T14:14:44;1.58;;;1.48;;
7162;SDS011;3623;47.098;15.446;2022-11-06T14:17:18;2.15;;;1.50;;
7162;SDS011;3623;47.098;15.446;2022-11-06T14:22:31;1.40;;;1.25;;
7162;SDS011;3623;47.098;15.446;2022-11-06T14:28:11;1.67;;;1.58;;
7162;SDS011;3623;47.098;15.446;2022-11-06T14:30:54;1.83;;;1.73;;
7162;SDS011;3623;47.098;15.446;2022-11-06T14:36:33;1.85;;;1.70;;
7162;SDS011;3623;47.098;15.446;2022-11-06T14:39:01;1.60;;;1.40;;
7162;SDS011;3623;47.098;15.446;2022-11-06T14:44:32;2.25;;;1.88;;
7162;SDS011;3623;47.098;15.446;2022-11-06T14:47:28;2.88;;;1.35;;
7162;SDS011;3623;47.098;15.446;2022-11-06T14:50:02;1.90;;;1.80;;
7162;SDS011;3623;47.098;15.446;2022-11-06T14:52:40;1.80;;;1.70;;
7162;SDS011;3623;47.098;15.446;2022-11-06T14:55:20;1.58;;;1.50;;
7162;SDS011;3623;47.098;15.446;2022-11-06T14:57:52;1.58;;;1.48;;
7162;SDS011;3623;47.098;15.446;2022-11-06T15:00:37;1.80;;;1.70;;
7162;SDS011;3623;47.098;15.446;2022-11-06T15:03:15;1.98;;;1.60;;
7162;SDS011;3623;47.098;15.446;2022-11-06T15:05:47;2.75;;;2.55;;
7162;SDS011;3623;47.098;15.446;2022-11-06T15:17:18;1.73;;;1.63;;
7162;SDS011;3623;47.098;15.446;2022-11-06T15:19:48;1.90;;;1.80;;
7162;SDS011;3623;47.098;15.446;2022-11-06T15:22:36;1.90;;;1.65;;
7162;SDS011;3623;47.098;15.446;2022-11-06T15:25:17;2.15;;;1.50;;
7162;SDS011;3623;47.098;15.446;2022-11-06T15:27:50;2.00;;;1.75;;
7162;SDS011;3623;47.098;15.446;2022-11-06T15:30:21;2.25;;;2.15;;
7162;SDS011;3623;47.098;15.446;2022-11-06T15:32:49;1.70;;;1.40;;
7162;SDS011;3623;47.098;15.446;2022-11-06T15:35:20;2.08;;;1.90;;
7162;SDS011;3623;47.098;15.446;2022-11-06T15:37:51;2.20;;;1.95;;
7162;SDS011;3623;47.098;15.446;2022-11-06T15:40:24;1.63;;;1.63;;
7162;SDS011;3623;47.098;15.446;2022-11-06T15:42:54;1.95;;;1.73;;
7162;SDS011;3623;47.098;15.446;2022-11-06T15:45:23;1.70;;;1.60;;
7162;SDS011;3623;47.098;15.446;2022-11-06T15:47:54;2.45;;;2.25;;
7162;SDS011;3623;47.098;15.446;2022-11-06T15:50:23;2.80;;;2.60;;